Ana Sayfa
METAR-TAF:

METAR-TAF

Havaalanları :

Kuveyt, Kuveyt

Enlem: 29-13N, Boylam: 047-59E, yükseklik: 55 m

Güncel hava durumu gözlemi

Rapor saat 11:00 UTC de 20 dakika önce yapıldı.
Rüzgar kuzey/kuzeydoğudan 5 kt
Sıcaklık 22°C
Nem 53%
Basınç 1017 hPa
Görüş mesafesi 10 km veya daha fazla
4000 ft yükseklikte az bulutlu
8000 ft yükseklikte parçalı çok bulutlu

METAR: OKBK 101100Z 02005KT 9999 FEW040 BKN080 22/12 Q1017 NOSIG

Saat: 14:20 (11:20 UTC)

Tahmin

Rapor saat 05:05 UTC de 6 saat ve 15 dakika önce yapıldı.
Ayın 10'si saat 06 UTC'den ayın 11'si saat 12 UTC'ye kadar geçerli Tahmin
Rüzgar kuzey/kuzeydoğudan 10 kt
Görüş mesafesi: 7000 m
Geçici
ayın 10'si saat 06 UTC'den ayın 10'si saat 15 UTC'ye kadar
Rüzgar değişken yönden 3 kt
Görüş mesafesi: 3000 m
Pus

TAF: OKBK 100505Z 1006/1112 02010KT 7000 NSC TEMPO 1006/1015 VRB03KT 3000 BR

4.000'den fazla havaalanı için hava durumu gözlemleri ve tahminleri (METAR ve TAF raporları).

Kullanılabilir istasyonlar harita üzerinde sarı ve kırmızı noktalarla gösterilir.

İstasyonun adını görmek için fareyi noktanın üzerinde gezdirin.

Sonrasında hava gözlem ve tahminlerini görmek için tıklayın.

Haritayı değiştirmek için: yaklaştırmak için siyah artı işaretli yeşil düğmeye ve uzaklaştırmak için de eksi işaretli düğmeye hızla tıklayın; bitişik haritalar için yeşil okları kullanın.


METAR-TAF: